createdAt,value
2022-08-25T00:02:00.801Z,4.30
2022-08-25T00:04:33.821Z,4.38
2022-08-25T00:07:04.423Z,5.10
2022-08-25T00:09:34.675Z,4.80
2022-08-25T00:12:05.639Z,5.35
2022-08-25T00:14:37.325Z,4.38
2022-08-25T00:17:06.911Z,3.95
2022-08-25T00:19:38.690Z,4.50
2022-08-25T00:22:08.995Z,3.80
2022-08-25T00:24:38.164Z,4.40
2022-08-25T00:27:12.727Z,5.32
2022-08-25T00:29:41.609Z,5.18
2022-08-25T00:32:10.569Z,4.30
2022-08-25T00:34:41.028Z,5.60
2022-08-25T00:37:10.480Z,4.80
2022-08-25T00:39:40.522Z,4.72
2022-08-25T00:42:16.345Z,4.97
2022-08-25T00:44:45.440Z,5.35
2022-08-25T00:47:14.278Z,4.85
2022-08-25T00:49:46.842Z,5.28
2022-08-25T00:52:18.246Z,5.40
2022-08-25T00:54:52.234Z,4.43
2022-08-25T00:57:34.216Z,4.47
2022-08-25T01:00:11.411Z,4.97
2022-08-25T01:02:40.505Z,4.28
2022-08-25T01:05:11.155Z,5.00
2022-08-25T01:10:09.938Z,5.35
2022-08-25T01:12:39.113Z,5.53
2022-08-25T01:15:09.478Z,5.80
2022-08-25T01:17:47.631Z,6.13
2022-08-25T01:20:19.871Z,5.55
2022-08-25T01:22:55.384Z,5.22
2022-08-25T01:25:37.416Z,5.90
2022-08-25T01:28:07.010Z,6.68
2022-08-25T01:30:35.961Z,5.63
2022-08-25T01:33:05.947Z,4.85
2022-08-25T01:35:35.079Z,5.43
2022-08-25T01:38:07.674Z,6.65
2022-08-25T01:40:37.294Z,5.32
2022-08-25T01:43:13.682Z,5.93
2022-08-25T01:45:44.743Z,5.68
2022-08-25T01:48:16.775Z,6.13
2022-08-25T01:50:45.528Z,6.30
2022-08-25T01:53:21.466Z,5.93
2022-08-25T01:56:02.709Z,7.05
2022-08-25T01:58:34.927Z,6.40
2022-08-25T02:01:05.390Z,6.35
2022-08-25T02:03:34.523Z,6.15
2022-08-25T02:06:04.208Z,6.63
2022-08-25T02:08:35.369Z,7.07
2022-08-25T02:11:04.330Z,6.30
2022-08-25T02:13:32.799Z,6.75
2022-08-25T02:16:02.437Z,7.40
2022-08-25T02:18:31.387Z,6.38
2022-08-25T02:21:00.180Z,6.88
2022-08-25T02:23:29.018Z,6.40
2022-08-25T02:25:59.116Z,7.45
2022-08-25T02:28:27.603Z,6.72
2022-08-25T02:31:01.510Z,6.65
2022-08-25T02:33:30.646Z,6.43
2022-08-25T02:36:00.449Z,7.70
2022-08-25T02:38:29.679Z,6.25
2022-08-25T02:41:00.281Z,6.70
2022-08-25T02:45:57.569Z,6.97
2022-08-25T02:48:26.273Z,7.60
2022-08-25T02:50:55.200Z,7.45
2022-08-25T02:53:23.847Z,7.22
2022-08-25T02:55:52.196Z,6.57
2022-08-25T02:58:22.859Z,6.88
2022-08-25T03:00:51.736Z,7.32
2022-08-25T03:03:21.685Z,8.32
2022-08-25T03:05:50.464Z,7.43
2022-08-25T03:08:19.132Z,7.30
2022-08-25T03:10:47.477Z,8.93
2022-08-25T03:13:17.019Z,7.60
2022-08-25T03:15:47.109Z,7.20
2022-08-25T03:18:18.152Z,8.43
2022-08-25T03:20:46.850Z,6.82
2022-08-25T03:23:15.844Z,6.90
2022-08-25T03:26:01.908Z,7.93
2022-08-25T03:28:33.301Z,7.38
2022-08-25T03:31:03.422Z,7.80
2022-08-25T03:33:32.729Z,7.38
2022-08-25T03:36:01.526Z,8.23
2022-08-25T03:38:30.352Z,6.57
2022-08-25T03:40:59.010Z,8.60
2022-08-25T03:43:27.413Z,8.40
2022-08-25T03:45:56.162Z,7.18
2022-08-25T03:48:26.356Z,6.93
2022-08-25T03:50:55.516Z,7.25
2022-08-25T03:53:24.186Z,7.40
2022-08-25T03:55:52.572Z,9.40
2022-08-25T03:58:21.286Z,7.53
2022-08-25T04:00:50.043Z,8.30
2022-08-25T04:03:19.548Z,8.32
2022-08-25T04:05:49.676Z,8.95
2022-08-25T04:08:19.295Z,8.75
2022-08-25T04:10:48.836Z,7.70
2022-08-25T04:13:18.748Z,8.70
2022-08-25T04:15:47.462Z,9.90
2022-08-25T04:18:16.392Z,7.90
2022-08-25T04:20:46.908Z,7.22
2022-08-25T04:23:17.246Z,7.75
2022-08-25T04:25:46.380Z,8.20
2022-08-25T04:28:15.085Z,7.63
2022-08-25T04:30:46.404Z,9.27
2022-08-25T04:33:17.855Z,8.18
2022-08-25T04:35:49.067Z,7.95
2022-08-25T04:38:19.357Z,9.45
2022-08-25T04:40:47.678Z,7.43
2022-08-25T04:43:16.407Z,9.18
2022-08-25T04:45:45.208Z,10.25
2022-08-25T04:48:13.932Z,8.23
2022-08-25T04:50:42.655Z,8.55
2022-08-25T04:53:11.355Z,9.52
2022-08-25T04:55:43.265Z,9.35
2022-08-25T04:58:14.692Z,10.25
2022-08-25T05:00:46.853Z,9.35
2022-08-25T05:03:15.762Z,8.35
2022-08-25T05:05:44.626Z,9.23
2022-08-25T05:08:13.363Z,9.13
2022-08-25T05:10:43.291Z,9.50
2022-08-25T05:13:12.617Z,10.80
2022-08-25T05:15:53.494Z,10.45
2022-08-25T05:18:24.178Z,8.65
2022-08-25T05:20:55.050Z,9.10
2022-08-25T05:23:24.743Z,10.07
2022-08-25T05:25:54.709Z,9.95
2022-08-25T05:28:23.584Z,10.65
2022-08-25T05:30:52.346Z,9.10
2022-08-25T05:33:21.178Z,10.32
2022-08-25T05:35:49.866Z,10.05
2022-08-25T05:38:20.112Z,9.27
2022-08-25T05:40:48.382Z,9.10
2022-08-25T05:43:18.561Z,9.32
2022-08-25T05:48:16.279Z,9.93
2022-08-25T05:50:52.834Z,10.23
2022-08-25T05:53:21.650Z,9.38
2022-08-25T05:55:50.861Z,9.88
2022-08-25T05:58:21.432Z,9.40
2022-08-25T06:00:50.142Z,9.13
2022-08-25T06:03:18.308Z,8.35
2022-08-25T06:05:47.368Z,9.82
2022-08-25T06:08:17.183Z,9.70
2022-08-25T06:10:45.628Z,11.18
2022-08-25T06:13:14.505Z,7.97
2022-08-25T06:15:44.510Z,9.63
2022-08-25T06:18:15.001Z,10.40
2022-08-25T06:20:43.762Z,9.07
2022-08-25T06:23:13.069Z,10.20
2022-08-25T06:25:41.693Z,10.07
2022-08-25T06:28:10.458Z,10.43
2022-08-25T06:30:40.549Z,8.73
2022-08-25T06:33:10.660Z,9.10
2022-08-25T06:35:42.844Z,9.55
2022-08-25T06:38:14.955Z,9.48
2022-08-25T06:40:43.322Z,10.35
2022-08-25T06:43:12.046Z,10.70
2022-08-25T06:48:12.386Z,9.85
2022-08-25T06:50:41.934Z,9.85
2022-08-25T06:53:10.707Z,10.55
2022-08-25T06:55:39.475Z,11.68
2022-08-25T06:58:11.116Z,8.98
2022-08-25T07:00:40.028Z,8.43
2022-08-25T07:03:09.611Z,9.35
2022-08-25T07:08:12.902Z,9.02
2022-08-25T07:10:41.299Z,8.25
2022-08-25T07:13:15.823Z,9.35
2022-08-25T07:15:45.275Z,9.60
2022-08-25T07:18:15.759Z,9.00
2022-08-25T07:20:45.920Z,10.55
2022-08-25T07:23:14.640Z,9.25
2022-08-25T07:25:43.031Z,10.13
2022-08-25T07:28:12.240Z,9.38
2022-08-25T07:30:41.021Z,8.83
2022-08-25T07:33:11.479Z,8.75
2022-08-25T07:35:39.597Z,10.30
2022-08-25T07:38:19.738Z,10.55
2022-08-25T07:40:56.989Z,9.80
2022-08-25T07:43:25.845Z,9.05
2022-08-25T07:45:54.987Z,10.90
2022-08-25T07:48:23.681Z,11.15
2022-08-25T07:50:52.416Z,9.15
2022-08-25T07:53:22.716Z,10.25
2022-08-25T07:55:51.324Z,10.32
2022-08-25T07:58:22.567Z,10.70
2022-08-25T08:00:53.397Z,9.53
2022-08-25T08:03:42.073Z,8.90
2022-08-25T08:09:38.310Z,9.63
2022-08-25T08:12:08.304Z,7.50
2022-08-25T08:14:37.316Z,9.23
2022-08-25T08:17:14.446Z,9.80
2022-08-25T08:19:45.495Z,9.32
2022-08-25T08:22:16.207Z,10.82
2022-08-25T08:24:56.291Z,9.63
2022-08-25T08:27:25.857Z,9.93
2022-08-25T08:29:54.845Z,8.82
2022-08-25T08:32:35.446Z,8.38
2022-08-25T08:35:12.137Z,9.88
2022-08-25T08:37:42.292Z,7.85
2022-08-25T08:40:14.449Z,8.93
2022-08-25T08:42:53.903Z,8.88
2022-08-25T08:48:10.113Z,7.75
2022-08-25T08:50:44.813Z,8.50
2022-08-25T08:53:18.220Z,8.93
2022-08-25T08:55:52.837Z,8.35
2022-08-25T08:58:26.576Z,9.82
2022-08-25T09:00:58.338Z,8.05
2022-08-25T09:03:33.266Z,8.40
2022-08-25T09:06:04.499Z,9.38
2022-08-25T09:08:36.117Z,8.38
2022-08-25T09:11:16.274Z,9.68
2022-08-25T09:13:59.478Z,9.80
2022-08-25T09:16:52.637Z,9.50
2022-08-25T09:19:33.385Z,10.60
2022-08-25T09:22:34.847Z,9.80
2022-08-25T09:25:09.052Z,8.10
2022-08-25T09:27:42.823Z,9.43
2022-08-25T09:30:14.105Z,8.95
2022-08-25T09:32:49.029Z,9.70
2022-08-25T09:35:23.164Z,8.68
2022-08-25T09:37:59.206Z,8.63
2022-08-25T09:40:29.650Z,8.30
2022-08-25T09:43:01.852Z,8.93
2022-08-25T09:45:36.316Z,9.57
2022-08-25T09:48:21.836Z,8.30
2022-08-25T09:50:52.343Z,7.75
2022-08-25T09:53:21.857Z,8.00
2022-08-25T09:56:00.190Z,6.70
2022-08-25T09:58:30.995Z,7.60
2022-08-25T10:01:08.845Z,6.65
2022-08-25T10:03:37.876Z,6.28
2022-08-25T10:06:13.203Z,5.43
2022-08-25T10:08:56.269Z,5.05
2022-08-25T10:11:35.125Z,5.30
2022-08-25T10:14:08.078Z,5.82
2022-08-25T10:16:37.057Z,5.20
2022-08-25T10:19:08.733Z,4.45
2022-08-25T10:21:39.346Z,5.90
2022-08-25T10:24:09.879Z,5.13
2022-08-25T10:26:50.282Z,5.53
2022-08-25T10:29:32.490Z,4.45
2022-08-25T10:32:11.478Z,5.28
2022-08-25T10:34:51.653Z,4.22
2022-08-25T10:37:32.811Z,3.70
2022-08-25T10:40:11.160Z,3.30
2022-08-25T10:42:49.685Z,3.63
2022-08-25T10:45:42.040Z,3.15
2022-08-25T10:48:35.936Z,3.78
2022-08-25T10:51:18.122Z,3.85
2022-08-25T10:53:57.540Z,3.63
2022-08-25T10:56:29.168Z,3.47
2022-08-25T10:59:10.816Z,3.58
2022-08-25T11:01:53.377Z,3.67
2022-08-25T11:04:26.313Z,3.40
2022-08-25T11:07:00.570Z,3.28
2022-08-25T11:09:32.486Z,3.80
2022-08-25T11:12:08.902Z,3.30
2022-08-25T11:14:40.375Z,2.63
2022-08-25T11:17:13.681Z,3.47
2022-08-25T11:19:47.374Z,3.92
2022-08-25T11:22:20.820Z,3.10
2022-08-25T11:24:58.214Z,4.13
2022-08-25T11:27:35.512Z,2.40
2022-08-25T11:30:09.053Z,3.65
2022-08-25T11:32:40.759Z,3.35
2022-08-25T11:35:13.189Z,3.40
2022-08-25T11:37:47.127Z,3.20
2022-08-25T11:40:37.981Z,3.22
2022-08-25T11:43:16.008Z,3.08
2022-08-25T11:45:55.791Z,3.10
2022-08-25T11:48:36.910Z,2.75
2022-08-25T11:51:07.602Z,2.92
2022-08-25T11:53:42.235Z,2.85
2022-08-25T11:56:13.829Z,3.28
2022-08-25T11:58:46.432Z,3.38
2022-08-25T12:01:52.171Z,3.28
2022-08-25T12:04:44.151Z,2.97
2022-08-25T12:07:21.966Z,2.92
2022-08-25T12:10:58.974Z,2.85
2022-08-25T12:13:41.399Z,2.30
2022-08-25T12:16:49.412Z,3.97
2022-08-25T12:19:52.744Z,3.08
2022-08-25T12:22:58.461Z,3.03
2022-08-25T12:25:36.750Z,3.08
2022-08-25T12:28:11.514Z,3.00
2022-08-25T12:30:45.839Z,2.80
2022-08-25T12:33:21.821Z,2.88
2022-08-25T12:35:58.525Z,3.60
2022-08-25T12:38:33.082Z,3.15
2022-08-25T12:41:08.290Z,2.83
2022-08-25T12:43:39.462Z,2.53
2022-08-25T12:46:36.770Z,3.58
2022-08-25T12:49:13.105Z,2.30
2022-08-25T12:51:54.679Z,2.95
2022-08-25T12:54:39.593Z,3.20
2022-08-25T12:57:25.155Z,3.03
2022-08-25T13:00:16.885Z,2.80
2022-08-25T13:06:14.183Z,2.92
2022-08-25T13:09:19.961Z,3.22
2022-08-25T13:11:54.716Z,3.92
2022-08-25T13:14:35.108Z,3.42
2022-08-25T13:17:07.368Z,4.47
2022-08-25T13:19:38.688Z,3.30
2022-08-25T13:22:16.405Z,2.88
2022-08-25T13:24:50.454Z,3.53
2022-08-25T13:27:23.812Z,4.40
2022-08-25T13:29:54.324Z,3.75
2022-08-25T13:32:32.134Z,4.03
2022-08-25T13:35:14.186Z,2.95
2022-08-25T13:37:42.193Z,3.38
2022-08-25T13:40:15.808Z,3.10
2022-08-25T13:42:55.934Z,3.17
2022-08-25T13:45:27.815Z,3.35
2022-08-25T13:47:58.149Z,3.08
2022-08-25T13:50:35.804Z,3.30
2022-08-25T13:53:11.367Z,3.10
2022-08-25T13:55:50.834Z,3.50
2022-08-25T13:58:44.975Z,3.45
2022-08-25T14:01:22.355Z,3.80
2022-08-25T14:04:27.474Z,2.60
2022-08-25T14:07:26.637Z,3.60
2022-08-25T14:10:05.253Z,2.80
2022-08-25T14:12:37.730Z,3.15
2022-08-25T14:15:12.916Z,3.08
2022-08-25T14:17:44.257Z,3.08
2022-08-25T14:20:27.399Z,3.35
2022-08-25T14:22:58.312Z,3.08
2022-08-25T14:25:30.563Z,3.03
2022-08-25T14:28:16.479Z,2.72
2022-08-25T14:30:51.660Z,2.50
2022-08-25T14:33:22.369Z,2.63
2022-08-25T14:35:54.334Z,3.40
2022-08-25T14:38:24.198Z,2.90
2022-08-25T14:40:53.657Z,2.70
2022-08-25T14:43:24.030Z,2.70
2022-08-25T14:46:02.915Z,3.38
2022-08-25T14:48:34.474Z,2.70
2022-08-25T14:51:06.915Z,2.30
2022-08-25T14:53:35.788Z,2.65
2022-08-25T14:56:06.945Z,3.10
2022-08-25T14:58:48.410Z,3.58
2022-08-25T15:01:28.745Z,2.83
2022-08-25T15:04:03.076Z,2.88
2022-08-25T15:06:32.257Z,3.60
2022-08-25T15:09:11.063Z,2.85
2022-08-25T15:11:41.925Z,3.40
2022-08-25T15:14:12.102Z,2.75
2022-08-25T15:16:45.298Z,2.33
2022-08-25T15:19:16.572Z,3.22
2022-08-25T15:21:46.992Z,2.25
2022-08-25T15:24:17.394Z,2.58
2022-08-25T15:29:23.447Z,2.58
2022-08-25T15:31:53.308Z,2.63
2022-08-25T15:34:22.079Z,2.90
2022-08-25T15:36:51.227Z,2.53
2022-08-25T15:39:20.116Z,2.33
2022-08-25T15:41:49.318Z,2.50
2022-08-25T15:44:18.342Z,2.42
2022-08-25T15:46:49.853Z,2.83
2022-08-25T15:49:23.512Z,2.70
2022-08-25T15:51:54.752Z,1.85
2022-08-25T15:54:26.725Z,2.38
2022-08-25T15:56:56.720Z,2.92
2022-08-25T15:59:25.881Z,2.70
2022-08-25T16:01:56.671Z,2.35
2022-08-25T16:04:28.935Z,2.53
2022-08-25T16:06:58.750Z,3.10
2022-08-25T16:09:28.203Z,2.20
2022-08-25T16:12:04.014Z,2.60
2022-08-25T16:14:35.732Z,2.03
2022-08-25T16:17:04.528Z,2.20
2022-08-25T16:19:35.787Z,2.85
2022-08-25T16:22:09.022Z,2.58
2022-08-25T16:24:42.030Z,2.72
2022-08-25T16:27:12.168Z,2.25
2022-08-25T16:29:41.969Z,2.42
2022-08-25T16:32:11.409Z,2.80
2022-08-25T16:34:44.223Z,2.80
2022-08-25T16:37:13.666Z,2.58
2022-08-25T16:42:15.358Z,2.83
2022-08-25T16:44:44.941Z,2.58
2022-08-25T16:47:14.462Z,4.50
2022-08-25T16:49:48.386Z,3.13
2022-08-25T16:52:35.356Z,3.15
2022-08-25T16:55:16.824Z,3.17
2022-08-25T16:57:47.437Z,3.53
2022-08-25T17:00:19.170Z,2.72
2022-08-25T17:02:48.727Z,2.72
2022-08-25T17:05:19.271Z,3.00
2022-08-25T17:08:08.788Z,2.90
2022-08-25T17:10:38.259Z,3.88
2022-08-25T17:13:07.543Z,2.70
2022-08-25T17:15:36.518Z,3.38
2022-08-25T17:18:05.490Z,3.87
2022-08-25T17:20:36.590Z,3.17
2022-08-25T17:23:11.987Z,3.05
2022-08-25T17:25:43.252Z,3.22
2022-08-25T17:28:13.105Z,3.53
2022-08-25T17:30:43.570Z,3.30
2022-08-25T17:33:14.237Z,3.22
2022-08-25T17:35:48.634Z,3.25
2022-08-25T17:38:19.954Z,3.15
2022-08-25T17:40:49.454Z,3.60
2022-08-25T17:43:18.850Z,3.30
2022-08-25T17:45:48.539Z,3.47
2022-08-25T17:48:18.123Z,3.55
2022-08-25T17:50:49.436Z,3.88
2022-08-25T17:53:19.410Z,4.18
2022-08-25T17:55:48.223Z,3.65
2022-08-25T17:58:18.416Z,3.85
2022-08-25T18:00:47.260Z,4.10
2022-08-25T18:03:17.173Z,4.60
2022-08-25T18:05:46.276Z,4.15
2022-08-25T18:08:18.340Z,4.53
2022-08-25T18:10:47.929Z,4.03
2022-08-25T18:13:16.897Z,3.35
2022-08-25T18:15:46.491Z,3.90
2022-08-25T18:18:15.392Z,4.00
2022-08-25T18:20:46.717Z,4.10
2022-08-25T18:23:17.256Z,4.15
2022-08-25T18:25:45.703Z,5.65
2022-08-25T18:28:16.635Z,6.50
2022-08-25T18:30:46.652Z,3.92
2022-08-25T18:33:16.016Z,4.97
2022-08-25T18:35:44.746Z,4.72
2022-08-25T18:38:31.476Z,4.22
2022-08-25T18:41:04.883Z,4.55
2022-08-25T18:43:35.163Z,4.30
2022-08-25T18:48:34.625Z,4.38
2022-08-25T18:51:03.491Z,4.63
2022-08-25T18:53:37.352Z,6.20
2022-08-25T18:56:20.031Z,4.10
2022-08-25T19:01:19.272Z,4.68
2022-08-25T19:03:48.141Z,4.47
2022-08-25T19:06:17.179Z,4.10
2022-08-25T19:08:48.678Z,4.35
2022-08-25T19:11:22.241Z,3.80
2022-08-25T19:13:51.261Z,4.25
2022-08-25T19:16:31.976Z,3.75
2022-08-25T19:19:04.303Z,5.57
2022-08-25T19:21:35.577Z,4.45
2022-08-25T19:24:04.695Z,4.03
2022-08-25T19:26:37.122Z,3.90
2022-08-25T19:29:08.931Z,4.82
2022-08-25T19:31:38.623Z,4.47
2022-08-25T19:34:09.398Z,4.10
2022-08-25T19:36:38.698Z,5.38
2022-08-25T19:39:09.789Z,4.35
2022-08-25T19:41:40.342Z,4.68
2022-08-25T19:44:10.827Z,4.82
2022-08-25T19:46:41.739Z,4.15
2022-08-25T19:49:15.276Z,4.95
2022-08-25T19:51:46.200Z,4.65
2022-08-25T19:54:16.361Z,3.85
2022-08-25T19:59:25.446Z,3.55
2022-08-25T20:01:54.712Z,4.70
2022-08-25T20:04:24.108Z,3.97
2022-08-25T20:06:56.631Z,4.25
2022-08-25T20:09:39.584Z,4.97
2022-08-25T20:12:12.309Z,4.20
2022-08-25T20:14:41.432Z,4.35
2022-08-25T20:17:23.264Z,4.90
2022-08-25T20:19:54.395Z,4.40
2022-08-25T20:22:26.605Z,4.55
2022-08-25T20:24:59.448Z,4.75
2022-08-25T20:27:33.790Z,5.03
2022-08-25T20:30:03.243Z,5.07
2022-08-25T20:32:33.280Z,5.75
2022-08-25T20:35:02.254Z,5.07
2022-08-25T20:37:30.985Z,4.32
2022-08-25T20:39:59.842Z,5.03
2022-08-25T20:42:30.125Z,4.80
2022-08-25T20:44:59.132Z,4.82
2022-08-25T20:47:27.844Z,4.25
2022-08-25T20:49:56.527Z,5.13
2022-08-25T20:52:25.254Z,4.50
2022-08-25T20:54:55.238Z,4.15
2022-08-25T20:57:26.024Z,4.55
2022-08-25T20:59:58.128Z,4.88
2022-08-25T21:02:28.590Z,4.43
2022-08-25T21:04:57.258Z,5.35
2022-08-25T21:07:26.252Z,4.80
2022-08-25T21:09:56.880Z,4.70
2022-08-25T21:12:25.657Z,5.28
2022-08-25T21:14:57.023Z,5.35
2022-08-25T21:19:54.106Z,4.75
2022-08-25T21:22:23.215Z,6.30
2022-08-25T21:24:52.495Z,5.65
2022-08-25T21:27:21.355Z,4.97
2022-08-25T21:29:54.585Z,5.22
2022-08-25T21:32:25.869Z,4.57
2022-08-25T21:34:56.283Z,4.30
2022-08-25T21:37:26.163Z,5.65
2022-08-25T21:39:55.500Z,5.05
2022-08-25T21:42:25.135Z,5.60
2022-08-25T21:44:54.122Z,4.85
2022-08-25T21:47:23.399Z,5.07
2022-08-25T21:49:53.535Z,4.78
2022-08-25T21:52:22.556Z,5.30
2022-08-25T21:54:53.792Z,4.78
2022-08-25T21:57:23.550Z,4.38
2022-08-25T21:59:53.180Z,4.63
2022-08-25T22:02:23.338Z,4.87
2022-08-25T22:04:54.493Z,5.47
2022-08-25T22:07:24.495Z,5.95
2022-08-25T22:09:54.711Z,5.88
2022-08-25T22:14:54.041Z,5.35
2022-08-25T22:17:24.412Z,4.32
2022-08-25T22:19:55.897Z,5.15
2022-08-25T22:22:25.184Z,4.93
2022-08-25T22:24:55.962Z,6.40
2022-08-25T22:27:25.475Z,6.50
2022-08-25T22:29:54.203Z,6.07
2022-08-25T22:32:22.937Z,5.30
2022-08-25T22:34:51.319Z,5.38
2022-08-25T22:37:21.412Z,5.18
2022-08-25T22:42:18.994Z,5.40
2022-08-25T22:44:55.154Z,5.15
2022-08-25T22:47:23.919Z,5.35
2022-08-25T22:49:55.769Z,4.68
2022-08-25T22:52:33.185Z,5.63
2022-08-25T22:55:02.901Z,4.88
2022-08-25T22:57:31.599Z,5.40
2022-08-25T23:00:00.291Z,4.65
2022-08-25T23:02:30.457Z,6.05
2022-08-25T23:05:00.901Z,4.72
2022-08-25T23:07:31.391Z,4.70
2022-08-25T23:10:02.982Z,4.95
2022-08-25T23:12:31.672Z,5.72
2022-08-25T23:15:01.778Z,4.80
2022-08-25T23:17:31.722Z,5.82
2022-08-25T23:20:20.403Z,4.63
2022-08-25T23:22:50.415Z,5.88
2022-08-25T23:25:22.593Z,5.18
2022-08-25T23:27:52.250Z,4.88
2022-08-25T23:30:21.514Z,5.30
2022-08-25T23:32:50.282Z,3.95
2022-08-25T23:35:19.373Z,4.93
2022-08-25T23:37:48.471Z,5.25
2022-08-25T23:40:21.336Z,5.47
2022-08-25T23:42:51.313Z,5.65
2022-08-25T23:45:20.047Z,5.75
2022-08-25T23:47:49.597Z,5.50
2022-08-25T23:50:18.636Z,5.25
2022-08-25T23:52:47.610Z,5.15
2022-08-25T23:55:16.442Z,5.53
2022-08-25T23:57:46.730Z,5.97
